Time;durP1;ratioP1;P1;durP2;ratioP2;P2;SDS_P1;SDS_P2;PMS_P1;PMS_P2;Temp;Humidity;BMP_temperature;BMP_pressure;BME280_temperature;BME280_humidity;BME280_pressure;Samples;Min_cycle;Max_cycle;Signal;HPM_P1;HPM_P2
2022/01/15 00:00:19;;;;;;;40.03;14.43;;;4.60;99.90;;;;;;5054303;28;20217;-56
2022/01/15 00:02:46;;;;;;;34.10;14.20;;;4.70;99.90;;;;;;5060671;28;20207;-57
2022/01/15 00:05:14;;;;;;;37.60;16.10;;;4.70;99.90;;;;;;5055699;28;20200;-57
2022/01/15 00:07:42;;;;;;;44.37;17.10;;;4.70;99.90;;;;;;5054151;28;20560;-56
2022/01/15 00:10:09;;;;;;;42.60;17.63;;;4.70;99.90;;;;;;5054822;28;20651;-55
2022/01/15 00:12:40;;;;;;;54.13;17.53;;;4.70;99.90;;;;;;5055890;28;20265;-56
2022/01/15 00:15:13;;;;;;;39.93;16.83;;;4.80;99.90;;;;;;5055120;28;20210;-57
2022/01/15 00:17:47;;;;;;;42.53;17.63;;;4.80;99.90;;;;;;5056425;28;20207;-56
2022/01/15 00:20:16;;;;;;;41.73;17.30;;;4.80;99.90;;;;;;5052071;28;20294;-55
2022/01/15 00:22:43;;;;;;;41.73;16.53;;;4.80;99.90;;;;;;5055594;28;20199;-57
2022/01/15 00:25:11;;;;;;;43.67;16.70;;;4.80;99.90;;;;;;5055581;28;20207;-56
2022/01/15 00:27:39;;;;;;;40.50;15.07;;;4.40;99.90;;;;;;5053884;28;20291;-55
2022/01/15 00:30:07;;;;;;;39.13;16.00;;;4.20;99.90;;;;;;5054475;28;20199;-54
2022/01/15 00:32:34;;;;;;;36.63;16.13;;;4.30;99.90;;;;;;5055018;28;20254;-53
2022/01/15 00:35:02;;;;;;;36.83;15.90;;;4.30;99.90;;;;;;5054536;28;20306;-56
2022/01/15 00:37:31;;;;;;;38.00;15.43;;;4.40;99.90;;;;;;5056657;28;20231;-51
2022/01/15 00:40:00;;;;;;;40.60;16.33;;;4.30;99.90;;;;;;5054079;28;20232;-52
2022/01/15 00:42:28;;;;;;;39.63;16.00;;;4.40;99.90;;;;;;5053509;28;20192;-53
2022/01/15 00:44:57;;;;;;;38.13;16.20;;;4.40;99.90;;;;;;5053599;28;20657;-62
2022/01/15 00:47:28;;;;;;;44.47;16.43;;;4.40;99.90;;;;;;5053895;28;21146;-55
2022/01/15 00:49:55;;;;;;;41.20;17.17;;;4.30;99.90;;;;;;5053657;28;20298;-53
2022/01/15 00:52:22;;;;;;;40.70;16.03;;;4.20;99.90;;;;;;5055830;28;20227;-52
2022/01/15 00:54:48;;;;;;;43.50;17.17;;;4.20;99.90;;;;;;5054943;28;20212;-56
2022/01/15 00:57:15;;;;;;;39.93;15.27;;;4.20;99.90;;;;;;5054604;28;20295;-54
2022/01/15 00:59:42;;;;;;;37.20;16.43;;;4.20;99.90;;;;;;5052927;28;20257;-54
2022/01/15 01:02:09;;;;;;;40.73;15.70;;;4.30;99.90;;;;;;5053506;28;20206;-52
2022/01/15 01:04:36;;;;;;;44.70;18.00;;;4.40;99.90;;;;;;5054868;28;20667;-56
2022/01/15 01:07:04;;;;;;;42.60;16.93;;;4.50;99.90;;;;;;5055562;28;20582;-54
2022/01/15 01:09:59;;;;;;;39.57;16.40;;;4.50;99.90;;;;;;5058354;28;20606;-52
2022/01/15 01:23:10;;;;;;;43.73;16.03;;;4.50;99.90;;;;;;5057971;28;20210;-54
2022/01/15 01:25:42;;;;;;;38.97;15.37;;;4.40;99.90;;;;;;5060327;28;20237;-53
2022/01/15 01:28:14;;;;;;;40.43;16.00;;;4.30;99.90;;;;;;5059487;28;20242;-53
2022/01/15 01:33:42;;;;;;;39.97;16.37;;;4.20;99.90;;;;;;5047375;28;20279;-54
2022/01/15 01:36:23;;;;;;;37.20;16.63;;;4.10;99.90;;;;;;5055951;28;20227;-53
2022/01/15 01:38:56;;;;;;;41.63;16.10;;;4.00;99.90;;;;;;5059096;28;20549;-52
2022/01/15 01:41:24;;;;;;;42.23;17.90;;;4.10;99.90;;;;;;5059556;28;20195;-55
2022/01/15 01:43:59;;;;;;;39.27;15.07;;;4.00;99.90;;;;;;5059932;28;20248;-54
2022/01/15 01:48:55;;;;;;;36.47;15.03;;;3.90;99.90;;;;;;5057525;28;20334;-55
2022/01/15 01:51:29;;;;;;;37.47;15.70;;;3.80;99.90;;;;;;5058185;28;20762;-53
2022/01/15 01:53:58;;;;;;;37.37;14.77;;;3.80;99.90;;;;;;5060022;28;20227;-52
2022/01/15 01:56:26;;;;;;;38.20;15.80;;;3.90;99.90;;;;;;5059552;28;20201;-51
2022/01/15 01:58:53;;;;;;;36.97;15.80;;;3.80;99.90;;;;;;5059317;28;20260;-53
2022/01/15 02:01:20;;;;;;;40.47;14.30;;;3.90;99.90;;;;;;5060015;28;20653;-56
2022/01/15 02:03:47;;;;;;;38.87;15.90;;;3.90;99.90;;;;;;5060144;28;20302;-55
2022/01/15 02:06:15;;;;;;;34.73;14.50;;;4.00;99.90;;;;;;5059029;28;20199;-53
2022/01/15 02:08:42;;;;;;;37.30;14.97;;;4.00;99.90;;;;;;5060066;28;21123;-56
2022/01/15 02:11:10;;;;;;;33.47;14.13;;;4.00;99.90;;;;;;5060671;28;21097;-54
2022/01/15 02:13:40;;;;;;;35.57;14.53;;;4.00;99.90;;;;;;5060020;28;20302;-51
2022/01/15 02:16:09;;;;;;;37.13;14.73;;;4.00;99.90;;;;;;5059536;28;20595;-54
2022/01/15 02:18:36;;;;;;;31.03;13.53;;;4.10;99.90;;;;;;5062099;28;20654;-53
2022/01/15 02:23:51;;;;;;;40.17;15.93;;;4.00;99.90;;;;;;5058411;28;20642;-54
2022/01/15 02:26:24;;;;;;;39.77;14.17;;;3.90;99.90;;;;;;5055827;28;20216;-55
2022/01/15 02:28:58;;;;;;;37.00;14.10;;;3.80;99.90;;;;;;5057342;28;20940;-53
2022/01/15 02:31:27;;;;;;;40.97;15.83;;;3.70;99.90;;;;;;5058920;28;21797;-54
2022/01/15 02:33:57;;;;;;;38.20;15.07;;;3.60;99.90;;;;;;5075633;28;20243;-53
2022/01/15 02:36:26;;;;;;;38.83;15.30;;;3.60;99.90;;;;;;5060446;28;20655;-53
2022/01/15 02:38:54;;;;;;;39.67;14.90;;;3.60;99.90;;;;;;5058262;28;20235;-59
2022/01/15 02:41:32;;;;;;;45.60;15.67;;;3.60;99.90;;;;;;5059182;28;20629;-56
2022/01/15 02:44:01;;;;;;;45.17;15.53;;;3.60;99.90;;;;;;5058557;28;20270;-59
2022/01/15 02:48:59;;;;;;;42.43;15.33;;;3.60;99.90;;;;;;5056646;28;20805;-58
2022/01/15 02:51:28;;;;;;;45.47;15.77;;;3.50;99.90;;;;;;5055803;28;20617;-57
2022/01/15 02:53:55;;;;;;;39.50;15.10;;;3.50;99.90;;;;;;5059251;28;20211;-57
2022/01/15 02:56:33;;;;;;;43.10;14.60;;;3.50;99.90;;;;;;5057350;28;20196;-58
2022/01/15 02:59:02;;;;;;;42.67;15.07;;;3.40;99.90;;;;;;5055753;28;20333;-54
2022/01/15 03:01:30;;;;;;;40.17;14.40;;;3.30;99.90;;;;;;5057566;28;20635;-57
2022/01/15 03:03:58;;;;;;;46.20;15.17;;;3.30;99.90;;;;;;5058057;28;20728;-57
2022/01/15 03:06:25;;;;;;;44.67;16.67;;;3.30;99.90;;;;;;5058590;28;20285;-56
2022/01/15 03:08:52;;;;;;;48.63;16.57;;;3.30;99.90;;;;;;5057240;28;20243;-56
2022/01/15 03:11:20;;;;;;;41.30;15.47;;;3.30;99.90;;;;;;5058237;28;20220;-57
2022/01/15 03:13:48;;;;;;;49.73;17.97;;;3.30;99.90;;;;;;5056639;28;20662;-64
2022/01/15 03:16:20;;;;;;;46.10;17.50;;;3.40;99.90;;;;;;5055126;28;21113;-58
2022/01/15 03:18:47;;;;;;;41.80;15.77;;;3.40;99.90;;;;;;5056494;28;20202;-55
2022/01/15 03:21:14;;;;;;;40.87;15.23;;;3.50;99.90;;;;;;5055734;28;20204;-57
2022/01/15 03:23:41;;;;;;;38.27;16.67;;;3.50;99.90;;;;;;5058152;28;20208;-60
2022/01/15 03:26:11;;;;;;;43.73;16.53;;;3.60;99.90;;;;;;5057391;28;20200;-58
2022/01/15 03:28:39;;;;;;;45.53;16.27;;;3.50;99.90;;;;;;5060414;28;20208;-54
2022/01/15 03:31:06;;;;;;;40.43;16.10;;;3.60;99.90;;;;;;5055993;28;20240;-57
2022/01/15 03:33:33;;;;;;;46.47;17.00;;;3.60;99.90;;;;;;5058391;28;20272;-56
2022/01/15 03:36:05;;;;;;;41.30;17.53;;;3.60;99.90;;;;;;5058411;28;20199;-58
2022/01/15 03:38:32;;;;;;;38.67;17.03;;;3.70;99.90;;;;;;5056974;28;20249;-58
2022/01/15 03:40:59;;;;;;;45.50;16.93;;;3.70;99.90;;;;;;5054582;28;20249;-56
2022/01/15 03:43:26;;;;;;;39.07;15.80;;;3.70;99.90;;;;;;5057277;28;21797;-58
2022/01/15 03:45:53;;;;;;;45.60;16.63;;;3.70;99.90;;;;;;5057310;28;20204;-56
2022/01/15 03:48:20;;;;;;;47.93;18.17;;;3.70;99.90;;;;;;5072197;28;20207;-59
2022/01/15 03:50:46;;;;;;;44.07;16.93;;;3.60;99.90;;;;;;5055779;28;20214;-57
2022/01/15 03:53:14;;;;;;;42.67;17.13;;;3.50;99.90;;;;;;5057827;28;20282;-58
2022/01/15 03:55:41;;;;;;;47.90;18.53;;;3.50;99.90;;;;;;5057600;28;20196;-59
2022/01/15 03:58:08;;;;;;;55.93;18.47;;;3.50;99.90;;;;;;5057762;28;20238;-58
2022/01/15 04:00:35;;;;;;;53.70;19.23;;;3.60;99.90;;;;;;5057238;28;20196;-59
2022/01/15 04:03:03;;;;;;;59.20;21.20;;;3.60;99.90;;;;;;5056698;28;20283;-59
2022/01/15 04:05:31;;;;;;;46.57;18.27;;;3.60;99.90;;;;;;5054819;28;20763;-56
2022/01/15 04:07:58;;;;;;;50.07;19.77;;;3.60;99.90;;;;;;5056081;28;20294;-57
2022/01/15 04:10:25;;;;;;;46.87;18.17;;;3.50;99.90;;;;;;5054140;28;20234;-57
2022/01/15 04:12:52;;;;;;;47.93;17.53;;;3.60;99.90;;;;;;5051626;28;20203;-57
2022/01/15 04:15:21;;;;;;;43.13;16.83;;;3.50;99.90;;;;;;5058255;28;20307;-56
2022/01/15 04:17:49;;;;;;;48.33;17.17;;;3.50;99.90;;;;;;5056648;28;20630;-56
2022/01/15 04:20:21;;;;;;;46.70;16.23;;;3.40;99.90;;;;;;5057838;28;20577;-57
2022/01/15 04:22:48;;;;;;;44.20;17.10;;;3.60;99.90;;;;;;5057247;28;20513;-56
2022/01/15 04:25:15;;;;;;;47.47;17.70;;;3.60;99.90;;;;;;5055541;28;20199;-57
2022/01/15 04:27:44;;;;;;;40.10;16.27;;;3.50;99.90;;;;;;5057734;28;20204;-59
2022/01/15 04:30:12;;;;;;;49.13;17.27;;;3.60;99.90;;;;;;5056037;28;20234;-58
2022/01/15 04:32:40;;;;;;;48.60;17.83;;;3.50;99.90;;;;;;5057851;28;20211;-59
2022/01/15 04:35:08;;;;;;;49.50;19.30;;;3.50;99.90;;;;;;5055323;28;20254;-58
2022/01/15 04:37:40;;;;;;;50.67;17.20;;;3.50;99.90;;;;;;5056794;28;20249;-58
2022/01/15 04:40:08;;;;;;;45.53;18.43;;;3.60;99.90;;;;;;5057509;28;20250;-59
2022/01/15 04:42:35;;;;;;;53.03;19.37;;;3.60;99.90;;;;;;5057097;28;20261;-59
2022/01/15 04:45:03;;;;;;;53.07;18.90;;;3.60;99.90;;;;;;5055511;28;20357;-58
2022/01/15 04:47:30;;;;;;;44.60;17.97;;;3.60;99.90;;;;;;5059988;28;20326;-57
2022/01/15 04:49:58;;;;;;;46.20;18.93;;;3.70;99.90;;;;;;5056290;28;20306;-59
2022/01/15 04:52:25;;;;;;;55.20;19.03;;;3.60;99.90;;;;;;5059236;28;20249;-58
2022/01/15 04:54:52;;;;;;;48.30;19.50;;;3.60;99.90;;;;;;5057044;28;20631;-59
2022/01/15 04:57:19;;;;;;;50.23;19.80;;;3.70;99.90;;;;;;5056287;28;20269;-58
2022/01/15 04:59:45;;;;;;;46.23;18.33;;;3.70;99.90;;;;;;5057234;28;20298;-58
2022/01/15 05:02:12;;;;;;;39.43;17.03;;;3.50;99.90;;;;;;5055056;28;20259;-57
2022/01/15 05:04:39;;;;;;;38.30;16.13;;;3.50;99.90;;;;;;5055024;28;20284;-58
2022/01/15 05:07:10;;;;;;;41.97;17.77;;;3.70;99.90;;;;;;5056546;28;20204;-55
2022/01/15 05:09:37;;;;;;;40.83;16.57;;;3.70;99.90;;;;;;5055834;28;20227;-58
2022/01/15 05:12:24;;;;;;;47.90;16.20;;;3.60;99.90;;;;;;5059923;28;20273;-59
2022/01/15 05:14:51;;;;;;;43.20;17.37;;;3.70;99.90;;;;;;5053126;28;20317;-58
2022/01/15 05:17:18;;;;;;;39.67;17.70;;;3.70;99.90;;;;;;5056305;28;20643;-58
2022/01/15 05:19:45;;;;;;;38.20;16.20;;;3.60;99.90;;;;;;5055238;28;20325;-58
2022/01/15 05:22:12;;;;;;;39.33;16.07;;;3.60;99.90;;;;;;5055848;28;20232;-57
2022/01/15 05:24:39;;;;;;;36.00;16.27;;;3.60;99.90;;;;;;5052998;28;20294;-59
2022/01/15 05:27:06;;;;;;;43.77;15.43;;;3.60;99.90;;;;;;5055025;28;21907;-58
2022/01/15 05:29:33;;;;;;;36.07;16.50;;;3.60;99.90;;;;;;5054357;28;20203;-56
2022/01/15 05:32:00;;;;;;;41.57;16.57;;;3.60;99.90;;;;;;5055994;28;20290;-57
2022/01/15 05:34:33;;;;;;;41.70;18.03;;;3.60;99.90;;;;;;5056510;28;20219;-57
2022/01/15 05:37:00;;;;;;;42.33;16.53;;;3.70;99.90;;;;;;5056426;28;20322;-57
2022/01/15 05:39:27;;;;;;;37.20;15.57;;;3.70;99.90;;;;;;5056456;28;20653;-57
2022/01/15 05:41:54;;;;;;;40.90;16.07;;;3.60;99.90;;;;;;5055356;28;20376;-56
2022/01/15 05:44:21;;;;;;;39.83;16.17;;;3.50;99.90;;;;;;5056938;28;20438;-56
2022/01/15 05:46:48;;;;;;;41.73;17.30;;;3.60;99.90;;;;;;5055197;28;20676;-56
2022/01/15 05:49:15;;;;;;;41.23;15.90;;;3.60;99.90;;;;;;5055942;28;20203;-57
2022/01/15 05:51:42;;;;;;;41.47;16.70;;;3.60;99.90;;;;;;5054694;28;20249;-59
2022/01/15 05:54:10;;;;;;;42.93;16.90;;;3.60;99.90;;;;;;5056675;28;20269;-58
2022/01/15 05:56:38;;;;;;;38.50;17.10;;;3.60;99.90;;;;;;5054975;28;20208;-57
2022/01/15 05:59:06;;;;;;;45.83;18.50;;;3.60;99.90;;;;;;5072986;28;20196;-58
2022/01/15 06:01:34;;;;;;;43.90;17.33;;;3.50;99.90;;;;;;5054813;28;20203;-56
2022/01/15 06:04:01;;;;;;;42.37;17.20;;;3.50;99.90;;;;;;5056542;28;20208;-58
2022/01/15 06:06:28;;;;;;;39.13;16.63;;;3.60;99.90;;;;;;5059590;28;20208;-58
2022/01/15 06:08:55;;;;;;;46.87;17.83;;;3.60;99.90;;;;;;5059251;28;20296;-57
2022/01/15 06:11:23;;;;;;;51.60;18.60;;;3.70;99.90;;;;;;5057966;28;20226;-57
2022/01/15 06:13:51;;;;;;;42.50;17.63;;;3.70;99.90;;;;;;5058404;28;20599;-58
2022/01/15 06:16:18;;;;;;;38.30;16.33;;;3.60;99.90;;;;;;5057978;28;20257;-58
2022/01/15 06:18:46;;;;;;;45.57;18.40;;;3.60;99.90;;;;;;5059289;28;20285;-58
2022/01/15 06:21:13;;;;;;;41.60;17.93;;;3.60;99.90;;;;;;5057003;28;20241;-57
2022/01/15 06:23:40;;;;;;;45.13;19.37;;;3.70;99.90;;;;;;5057547;28;20240;-58
2022/01/15 06:26:07;;;;;;;47.83;18.30;;;3.80;99.90;;;;;;5059165;28;20207;-58
2022/01/15 06:28:34;;;;;;;42.43;17.77;;;3.70;99.90;;;;;;5058057;28;20196;-56
2022/01/15 06:31:01;;;;;;;53.10;19.60;;;3.70;99.90;;;;;;5057880;28;20253;-57
2022/01/15 06:33:31;;;;;;;43.47;18.90;;;3.50;99.90;;;;;;5058651;28;20207;-59
2022/01/15 06:35:58;;;;;;;47.17;19.40;;;3.50;99.90;;;;;;5055866;28;20237;-58
2022/01/15 06:38:25;;;;;;;48.13;18.97;;;3.50;99.90;;;;;;5059039;28;20203;-54
2022/01/15 06:40:52;;;;;;;57.47;21.17;;;3.50;99.90;;;;;;5058116;28;20253;-57
2022/01/15 06:43:19;;;;;;;48.70;19.77;;;3.50;99.90;;;;;;5059316;28;20253;-58
2022/01/15 06:45:47;;;;;;;52.83;20.33;;;3.60;99.90;;;;;;5059968;28;20210;-58
2022/01/15 06:48:13;;;;;;;59.70;20.47;;;3.70;99.90;;;;;;5058968;28;20203;-58
2022/01/15 06:50:42;;;;;;;48.07;19.33;;;3.70;99.90;;;;;;5058462;28;20207;-58
2022/01/15 06:53:08;;;;;;;54.30;19.53;;;3.70;99.90;;;;;;5059764;28;20333;-58
2022/01/15 06:55:35;;;;;;;55.43;19.33;;;3.60;99.90;;;;;;5058207;28;20991;-58
2022/01/15 06:58:02;;;;;;;53.50;19.00;;;3.60;99.90;;;;;;5057959;28;20206;-56
2022/01/15 07:00:29;;;;;;;55.37;20.93;;;3.60;99.90;;;;;;5055777;28;20211;-58
2022/01/15 07:03:00;;;;;;;44.30;18.70;;;3.70;99.90;;;;;;5058318;28;20551;-56
2022/01/15 07:05:27;;;;;;;48.03;18.27;;;3.60;99.90;;;;;;5056147;28;20208;-58
2022/01/15 07:07:54;;;;;;;46.27;18.80;;;3.60;99.90;;;;;;5056735;28;20199;-57
2022/01/15 07:10:21;;;;;;;48.13;18.77;;;3.50;99.90;;;;;;5056907;28;20227;-58
2022/01/15 07:12:50;;;;;;;55.27;19.53;;;3.50;99.90;;;;;;5057564;28;20207;-59
2022/01/15 07:15:16;;;;;;;46.67;19.77;;;3.60;99.90;;;;;;5057171;28;20344;-57
2022/01/15 07:17:44;;;;;;;53.97;18.87;;;3.60;99.90;;;;;;5057443;28;20246;-56
2022/01/15 07:20:13;;;;;;;59.67;21.00;;;3.70;99.90;;;;;;5058539;28;20191;-55
2022/01/15 07:22:40;;;;;;;55.60;21.70;;;3.60;99.90;;;;;;5060225;28;20204;-56
2022/01/15 07:25:08;;;;;;;63.33;20.17;;;3.60;99.90;;;;;;5058298;28;20667;-54
2022/01/15 07:27:36;;;;;;;44.73;18.70;;;3.80;99.90;;;;;;5058355;28;20227;-58
2022/01/15 07:30:04;;;;;;;62.00;19.20;;;3.80;99.90;;;;;;5058985;28;20208;-58
2022/01/15 07:32:31;;;;;;;56.60;19.13;;;3.60;99.90;;;;;;5060049;28;20232;-58
2022/01/15 07:34:59;;;;;;;56.73;21.33;;;3.70;99.90;;;;;;5057754;28;20306;-57
2022/01/15 07:37:26;;;;;;;51.07;18.37;;;3.70;99.90;;;;;;5057493;28;20199;-56
2022/01/15 07:39:53;;;;;;;42.37;16.37;;;3.60;99.90;;;;;;5058367;28;20220;-56
2022/01/15 07:42:20;;;;;;;41.17;16.60;;;3.60;99.90;;;;;;5054165;28;20230;-57
2022/01/15 07:44:47;;;;;;;46.40;17.37;;;3.70;99.90;;;;;;5056771;28;20232;-55
2022/01/15 07:47:14;;;;;;;37.33;14.47;;;3.60;99.90;;;;;;5057818;28;20195;-58
2022/01/15 07:49:41;;;;;;;43.33;16.70;;;3.60;99.90;;;;;;5056452;28;20227;-57
2022/01/15 07:52:08;;;;;;;48.07;13.83;;;3.60;99.90;;;;;;5057102;28;20208;-55
2022/01/15 07:54:35;;;;;;;35.10;14.00;;;3.60;99.90;;;;;;5056765;28;20219;-59
2022/01/15 07:57:02;;;;;;;36.37;14.20;;;3.50;99.90;;;;;;5058058;28;20203;-58
2022/01/15 07:59:29;;;;;;;43.00;14.73;;;3.50;99.90;;;;;;5056148;28;20219;-58
2022/01/15 08:01:56;;;;;;;36.27;13.27;;;3.40;99.90;;;;;;5055101;28;20198;-57
2022/01/15 08:04:23;;;;;;;37.03;14.73;;;3.50;99.90;;;;;;5058655;28;20191;-58
2022/01/15 08:06:50;;;;;;;42.43;16.47;;;3.50;99.90;;;;;;5060430;28;20306;-59
2022/01/15 08:09:17;;;;;;;42.23;15.43;;;3.50;99.90;;;;;;5057679;28;20234;-59
2022/01/15 08:11:44;;;;;;;52.50;17.37;;;3.50;99.90;;;;;;5050976;28;20257;-56
2022/01/15 08:14:11;;;;;;;36.50;16.33;;;3.60;99.90;;;;;;5054373;28;20215;-54
2022/01/15 08:16:38;;;;;;;51.63;16.80;;;3.60;99.90;;;;;;5050741;28;20284;-57
2022/01/15 08:19:05;;;;;;;44.73;18.27;;;3.60;99.90;;;;;;5068001;28;20212;-58
2022/01/15 08:21:32;;;;;;;54.13;19.27;;;3.60;99.90;;;;;;5054476;28;20212;-58
2022/01/15 08:23:58;;;;;;;48.47;17.67;;;3.50;99.90;;;;;;5050216;28;20215;-58
2022/01/15 08:26:26;;;;;;;45.60;17.30;;;3.50;99.90;;;;;;5053546;28;20651;-61
2022/01/15 08:28:53;;;;;;;40.20;15.27;;;3.50;99.90;;;;;;5054287;28;20215;-60
2022/01/15 08:31:20;;;;;;;40.27;15.00;;;3.50;99.90;;;;;;5055378;28;20211;-58
2022/01/15 08:33:47;;;;;;;38.93;15.07;;;3.50;99.90;;;;;;5053335;28;20298;-55
2022/01/15 08:36:16;;;;;;;41.17;16.27;;;3.50;99.90;;;;;;5052283;28;20223;-58
2022/01/15 08:38:43;;;;;;;51.37;15.90;;;3.50;99.90;;;;;;5054260;28;20230;-55
2022/01/15 08:41:28;;;;;;;47.47;16.83;;;3.40;99.90;;;;;;5056368;28;20203;-55
2022/01/15 08:43:54;;;;;;;47.40;16.07;;;3.40;99.90;;;;;;5056709;28;20270;-58
2022/01/15 08:46:21;;;;;;;35.83;14.90;;;3.40;99.90;;;;;;5054044;28;20214;-56
2022/01/15 08:48:49;;;;;;;34.50;13.77;;;3.40;99.90;;;;;;5051026;28;20859;-58
2022/01/15 08:51:16;;;;;;;45.20;12.87;;;3.40;99.90;;;;;;5056251;28;20219;-57
2022/01/15 08:53:43;;;;;;;25.47;11.93;;;3.40;99.90;;;;;;5054392;28;20261;-57
2022/01/15 08:56:09;;;;;;;37.97;12.47;;;3.30;99.90;;;;;;5055420;28;20212;-58
2022/01/15 08:58:36;;;;;;;30.47;10.53;;;3.40;99.90;;;;;;5055865;28;20290;-58
2022/01/15 09:01:04;;;;;;;54.63;11.87;;;3.30;99.90;;;;;;5054910;28;20199;-57
2022/01/15 09:03:33;;;;;;;29.30;11.63;;;3.30;99.90;;;;;;5048823;28;20659;-57
2022/01/15 09:06:00;;;;;;;27.23;12.83;;;3.40;99.90;;;;;;5056288;28;20207;-58
2022/01/15 09:08:28;;;;;;;40.20;10.07;;;3.40;99.90;;;;;;5053376;28;20212;-56
2022/01/15 09:10:56;;;;;;;31.00;10.97;;;3.40;99.90;;;;;;5054625;28;20196;-55
2022/01/15 09:13:24;;;;;;;24.93;10.33;;;3.20;99.90;;;;;;5053984;28;20210;-58
2022/01/15 09:15:50;;;;;;;25.20;9.70;;;3.00;99.90;;;;;;5055150;28;20253;-59
2022/01/15 09:18:19;;;;;;;29.07;10.70;;;3.10;99.90;;;;;;5055725;28;20202;-59
2022/01/15 09:20:47;;;;;;;28.13;10.93;;;3.20;99.90;;;;;;5055999;28;20223;-58
2022/01/15 09:23:15;;;;;;;32.10;10.17;;;3.10;99.90;;;;;;5057824;28;20199;-58
2022/01/15 09:25:42;;;;;;;26.03;8.53;;;3.20;99.90;;;;;;5055184;28;20295;-57
2022/01/15 09:30:55;;;;;;;24.80;8.37;;;3.10;99.90;;;;;;5055309;28;20199;-58
2022/01/15 09:33:22;;;;;;;20.20;8.20;;;3.30;99.90;;;;;;5049988;28;20196;-59
2022/01/15 09:35:49;;;;;;;17.23;8.77;;;3.30;99.90;;;;;;5052024;28;20291;-57
2022/01/15 09:38:16;;;;;;;26.40;9.37;;;3.30;99.90;;;;;;5055809;28;20200;-59
2022/01/15 09:40:44;;;;;;;18.27;8.40;;;3.30;99.90;;;;;;5057406;28;20213;-57
2022/01/15 09:43:12;;;;;;;17.93;8.80;;;3.20;99.90;;;;;;5057894;28;20242;-57
2022/01/15 09:45:44;;;;;;;19.53;8.80;;;3.20;99.90;;;;;;5058389;28;20203;-58
2022/01/15 09:48:14;;;;;;;15.73;8.63;;;3.30;99.90;;;;;;5056591;28;20234;-58
2022/01/15 09:50:43;;;;;;;16.73;8.37;;;3.20;99.90;;;;;;5055442;28;20260;-56
2022/01/15 09:53:13;;;;;;;22.10;9.37;;;3.10;99.90;;;;;;5057153;28;20207;-58
2022/01/15 09:55:40;;;;;;;21.83;9.43;;;3.10;99.90;;;;;;5057833;28;20217;-56
2022/01/15 09:58:07;;;;;;;23.47;8.80;;;3.20;99.90;;;;;;5056751;28;20203;-59
2022/01/15 10:00:34;;;;;;;20.63;8.27;;;2.90;99.90;;;;;;5060967;28;20432;-58
2022/01/15 10:03:02;;;;;;;18.27;9.57;;;2.90;99.90;;;;;;5058682;28;20272;-58
2022/01/15 10:05:29;;;;;;;21.43;9.27;;;2.90;99.90;;;;;;5059971;28;20512;-58
2022/01/15 10:07:57;;;;;;;21.27;9.83;;;2.70;99.90;;;;;;5061373;28;20292;-58
2022/01/15 10:10:25;;;;;;;20.77;10.00;;;2.70;99.90;;;;;;5052221;28;20380;-60
2022/01/15 10:12:52;;;;;;;21.17;9.47;;;2.80;99.90;;;;;;5059718;28;20314;-55
2022/01/15 10:15:19;;;;;;;22.57;9.27;;;2.70;99.90;;;;;;5053986;28;20760;-55
2022/01/15 10:17:46;;;;;;;24.57;10.27;;;2.80;99.90;;;;;;5059634;28;20481;-57
2022/01/15 10:20:22;;;;;;;21.33;10.27;;;2.60;99.90;;;;;;5055972;28;20211;-58
2022/01/15 10:22:51;;;;;;;26.23;9.30;;;2.70;99.90;;;;;;5058571;28;20496;-55
2022/01/15 10:25:22;;;;;;;17.70;10.10;;;2.80;99.90;;;;;;5055379;28;20243;-59
2022/01/15 10:27:55;;;;;;;20.20;10.30;;;2.80;99.90;;;;;;5057669;28;20665;-57
2022/01/15 10:30:27;;;;;;;18.40;9.67;;;2.90;99.90;;;;;;5061077;28;20235;-59
2022/01/15 10:33:09;;;;;;;23.47;9.73;;;2.90;99.90;;;;;;5057853;28;20203;-54
2022/01/15 10:35:38;;;;;;;21.93;10.80;;;2.90;99.90;;;;;;5059169;28;20273;-58
2022/01/15 10:38:12;;;;;;;20.00;10.70;;;2.90;99.90;;;;;;5058565;28;20360;-57
2022/01/15 10:40:58;;;;;;;22.77;11.17;;;2.90;99.90;;;;;;5056954;28;20226;-55
2022/01/15 10:43:34;;;;;;;19.67;10.43;;;2.80;99.90;;;;;;5064266;28;20303;-57
2022/01/15 10:46:01;;;;;;;23.23;10.67;;;2.80;99.90;;;;;;5057620;28;20856;-59
2022/01/15 10:48:33;;;;;;;21.70;11.50;;;2.70;99.90;;;;;;5059216;28;20307;-59
2022/01/15 10:51:08;;;;;;;17.83;10.93;;;2.80;99.90;;;;;;5059852;28;20253;-58
2022/01/15 10:53:40;;;;;;;21.47;12.37;;;2.90;99.90;;;;;;5056966;28;20210;-59
2022/01/15 10:56:09;;;;;;;27.10;11.97;;;2.70;99.90;;;;;;5061236;28;20218;-56
2022/01/15 10:58:37;;;;;;;23.77;12.27;;;2.90;99.90;;;;;;5062133;28;20227;-57
2022/01/15 11:01:04;;;;;;;25.93;11.90;;;2.80;99.90;;;;;;5059874;28;20298;-59
2022/01/15 11:03:40;;;;;;;29.60;13.50;;;2.70;99.90;;;;;;5059405;28;20203;-58
2022/01/15 11:06:07;;;;;;;34.57;13.37;;;2.70;99.90;;;;;;5075074;28;20213;-58
2022/01/15 11:08:36;;;;;;;24.80;12.60;;;2.70;99.90;;;;;;5059550;28;20219;-57
2022/01/15 11:11:06;;;;;;;27.80;13.77;;;2.60;99.90;;;;;;5058824;28;21103;-59
2022/01/15 11:13:39;;;;;;;29.73;14.27;;;2.80;99.90;;;;;;5060565;28;20211;-58
2022/01/15 11:16:26;;;;;;;25.80;12.90;;;2.90;99.90;;;;;;5054262;28;20223;-56
2022/01/15 11:18:56;;;;;;;33.57;14.43;;;2.70;99.90;;;;;;5058126;28;20230;-58
2022/01/15 11:21:26;;;;;;;30.83;13.67;;;2.70;99.90;;;;;;5057955;28;20192;-58
2022/01/15 11:23:56;;;;;;;29.33;14.20;;;2.70;99.90;;;;;;5060324;28;20204;-58
2022/01/15 11:26:28;;;;;;;31.23;14.00;;;2.70;99.90;;;;;;5059428;28;20241;-59
2022/01/15 11:28:57;;;;;;;28.60;14.73;;;2.70;99.90;;;;;;5056416;28;20234;-57
2022/01/15 11:31:26;;;;;;;33.20;14.47;;;2.80;99.90;;;;;;5063075;28;20234;-59
2022/01/15 11:33:56;;;;;;;37.97;16.33;;;3.00;99.90;;;;;;5058061;28;20200;-57
2022/01/15 11:36:41;;;;;;;35.57;15.77;;;3.10;99.90;;;;;;5056425;28;20219;-57
2022/01/15 11:39:20;;;;;;;36.27;16.23;;;3.20;99.90;;;;;;5058864;28;20230;-56
2022/01/15 11:41:53;;;;;;;33.47;15.57;;;3.20;99.90;;;;;;5059050;28;20623;-58
2022/01/15 11:44:39;;;;;;;33.00;14.50;;;3.10;99.90;;;;;;5056916;28;20271;-60
2022/01/15 11:47:20;;;;;;;34.43;17.03;;;3.20;99.90;;;;;;5051594;28;20697;-57
2022/01/15 11:49:49;;;;;;;29.60;14.87;;;3.30;99.90;;;;;;5055928;28;20711;-57
2022/01/15 11:52:30;;;;;;;31.90;15.40;;;3.20;99.90;;;;;;5056749;28;20215;-59
2022/01/15 11:54:57;;;;;;;28.17;14.83;;;3.30;99.90;;;;;;5055308;28;20616;-56
2022/01/15 11:57:44;;;;;;;34.47;15.83;;;3.40;99.90;;;;;;5056321;28;20223;-59
2022/01/15 12:00:11;;;;;;;34.73;16.57;;;3.40;99.90;;;;;;5057028;28;20253;-59
2022/01/15 12:02:42;;;;;;;32.37;15.70;;;3.50;99.90;;;;;;5054023;28;20212;-56
2022/01/15 12:05:18;;;;;;;27.23;15.03;;;3.50;99.90;;;;;;5053373;28;20215;-57
2022/01/15 12:08:05;;;;;;;28.70;14.43;;;3.20;99.90;;;;;;5058297;28;20546;-56
2022/01/15 12:10:46;;;;;;;30.60;16.17;;;3.10;99.90;;;;;;5045614;28;20271;-57
2022/01/15 12:13:23;;;;;;;31.17;15.57;;;3.10;99.90;;;;;;5061979;28;20245;-56
2022/01/15 12:16:13;;;;;;;30.43;13.70;;;3.10;99.90;;;;;;5058159;28;20234;-58
2022/01/15 12:18:48;;;;;;;30.60;14.23;;;3.00;99.90;;;;;;5056475;28;20719;-54
2022/01/15 12:21:40;;;;;;;30.50;15.20;;;3.10;99.90;;;;;;5059292;28;20198;-57
2022/01/15 12:24:39;;;;;;;29.33;14.10;;;3.10;99.90;;;;;;5054372;28;20260;-57
2022/01/15 12:27:10;;;;;;;26.43;13.97;;;3.30;99.90;;;;;;5053833;28;20221;-56
2022/01/15 12:29:38;;;;;;;26.37;12.83;;;3.20;99.90;;;;;;5055405;28;20195;-55
2022/01/15 12:32:06;;;;;;;29.07;14.13;;;3.10;99.90;;;;;;5056617;28;20228;-57
2022/01/15 12:34:33;;;;;;;26.87;12.97;;;3.10;99.90;;;;;;5054079;28;20679;-58
2022/01/15 12:37:00;;;;;;;26.20;13.43;;;3.20;99.90;;;;;;5052640;28;20211;-56
2022/01/15 12:39:38;;;;;;;29.53;13.63;;;3.30;99.90;;;;;;5056734;28;20226;-58
2022/01/15 12:42:07;;;;;;;33.33;14.90;;;3.50;99.90;;;;;;5054186;28;20701;-58
2022/01/15 12:44:46;;;;;;;29.57;13.33;;;3.60;99.90;;;;;;5055486;28;20253;-56
2022/01/15 12:47:15;;;;;;;31.50;14.07;;;3.50;99.90;;;;;;5058971;28;20921;-58
2022/01/15 12:49:48;;;;;;;32.13;14.40;;;3.60;99.90;;;;;;5054506;28;20215;-57
2022/01/15 12:52:26;;;;;;;27.20;14.00;;;3.50;99.90;;;;;;5057098;28;20607;-57
2022/01/15 12:54:55;;;;;;;30.80;14.33;;;3.60;99.90;;;;;;5055602;28;20967;-57
2022/01/15 12:57:44;;;;;;;30.07;14.53;;;3.50;99.90;;;;;;5054190;28;20710;-58
2022/01/15 13:00:27;;;;;;;29.27;13.97;;;3.70;99.90;;;;;;5057961;28;20199;-58
2022/01/15 13:03:00;;;;;;;30.67;14.03;;;3.70;99.90;;;;;;5056613;28;20265;-56
2022/01/15 13:05:31;;;;;;;29.30;14.77;;;3.70;99.90;;;;;;5054116;28;20260;-57
2022/01/15 13:08:05;;;;;;;29.93;14.80;;;3.70;99.90;;;;;;5053946;28;20257;-58
2022/01/15 13:10:54;;;;;;;27.50;13.97;;;3.50;99.90;;;;;;5056031;28;20631;-58
2022/01/15 13:13:22;;;;;;;28.77;13.77;;;3.70;99.90;;;;;;5054370;28;20235;-57